createdAt,value
2023-03-26T00:01:02.066Z,18.60
2023-03-26T00:03:30.056Z,24.45
2023-03-26T00:06:14.555Z,16.45
2023-03-26T00:08:45.141Z,11.88
2023-03-26T00:11:14.285Z,23.63
2023-03-26T00:13:43.731Z,25.15
2023-03-26T00:16:13.774Z,23.55
2023-03-26T00:18:42.604Z,18.98
2023-03-26T00:21:13.323Z,19.73
2023-03-26T00:23:39.947Z,20.90
2023-03-26T00:26:10.811Z,22.35
2023-03-26T00:28:40.514Z,17.48
2023-03-26T00:31:10.791Z,19.00
2023-03-26T00:33:38.575Z,13.55
2023-03-26T00:36:10.085Z,17.33
2023-03-26T00:38:39.072Z,11.75
2023-03-26T00:41:08.284Z,23.65
2023-03-26T00:43:36.230Z,14.63
2023-03-26T00:46:03.429Z,14.85
2023-03-26T00:48:42.277Z,19.60
2023-03-26T00:51:12.618Z,13.63
2023-03-26T00:53:41.284Z,15.48
2023-03-26T00:56:08.788Z,18.70
2023-03-26T00:58:35.740Z,20.08
2023-03-26T01:01:06.294Z,13.48
2023-03-26T01:03:35.773Z,17.33
2023-03-26T01:06:08.230Z,12.60
2023-03-26T01:09:00.460Z,23.92
2023-03-26T01:11:31.965Z,18.50
2023-03-26T01:14:02.677Z,18.50
2023-03-26T01:16:38.282Z,11.50
2023-03-26T01:19:16.455Z,9.10
2023-03-26T01:21:43.059Z,14.85
2023-03-26T01:24:10.495Z,16.38
2023-03-26T01:27:07.909Z,8.85
2023-03-26T01:29:40.540Z,13.35
2023-03-26T01:32:30.939Z,15.95
2023-03-26T01:35:31.933Z,10.95
2023-03-26T01:38:10.903Z,11.45
2023-03-26T01:40:49.600Z,19.45
2023-03-26T01:43:32.340Z,17.83
2023-03-26T01:46:03.707Z,15.52
2023-03-26T01:48:40.449Z,14.52
2023-03-26T01:51:08.078Z,4.95
2023-03-26T01:53:40.598Z,8.73
2023-03-26T01:56:24.019Z,10.77
2023-03-26T01:59:16.900Z,10.27
2023-03-26T02:02:09.329Z,16.08
2023-03-26T02:04:47.061Z,8.95
2023-03-26T02:07:23.685Z,15.43
2023-03-26T02:10:02.284Z,7.03
2023-03-26T02:12:30.365Z,7.82
2023-03-26T02:14:59.932Z,10.95
2023-03-26T02:17:30.042Z,8.63
2023-03-26T02:19:57.285Z,10.57
2023-03-26T02:22:29.956Z,12.48
2023-03-26T02:24:56.560Z,14.50
2023-03-26T02:27:23.318Z,6.57
2023-03-26T02:29:50.366Z,6.77
2023-03-26T02:32:19.341Z,21.83
2023-03-26T02:34:45.874Z,12.60
2023-03-26T02:37:12.429Z,16.50
2023-03-26T02:39:38.933Z,5.20
2023-03-26T02:42:05.643Z,12.32
2023-03-26T02:44:32.291Z,21.05
2023-03-26T02:46:58.792Z,5.22
2023-03-26T02:49:25.372Z,4.03
2023-03-26T02:51:56.377Z,13.70
2023-03-26T02:54:23.535Z,20.93
2023-03-26T02:56:50.358Z,9.73
2023-03-26T02:59:17.433Z,8.70
2023-03-26T03:01:44.076Z,16.10
2023-03-26T03:04:12.051Z,13.35
2023-03-26T03:06:40.549Z,11.15
2023-03-26T03:09:11.369Z,10.27
2023-03-26T03:11:40.026Z,16.50
2023-03-26T03:14:07.041Z,11.65
2023-03-26T03:16:33.849Z,8.43
2023-03-26T03:19:01.932Z,17.85
2023-03-26T03:21:29.381Z,18.95
2023-03-26T03:23:56.392Z,21.83
2023-03-26T03:26:27.773Z,15.30
2023-03-26T03:28:56.575Z,25.25
2023-03-26T03:31:24.945Z,9.20
2023-03-26T03:33:52.000Z,14.65
2023-03-26T03:36:27.365Z,18.63
2023-03-26T03:38:54.102Z,15.52
2023-03-26T03:41:20.686Z,12.98
2023-03-26T03:43:47.206Z,16.55
2023-03-26T03:46:13.759Z,12.77
2023-03-26T03:48:40.825Z,17.88
2023-03-26T03:51:07.455Z,15.18
2023-03-26T03:53:37.241Z,17.90
2023-03-26T03:56:04.903Z,10.80
2023-03-26T03:58:31.599Z,15.15
2023-03-26T04:01:01.064Z,8.50
2023-03-26T04:03:33.753Z,6.88
2023-03-26T04:06:01.404Z,9.52
2023-03-26T04:08:28.078Z,10.07
2023-03-26T04:10:54.646Z,16.75
2023-03-26T04:13:21.594Z,10.27
2023-03-26T04:15:48.334Z,9.10
2023-03-26T04:18:15.126Z,8.20
2023-03-26T04:20:46.377Z,14.15
2023-03-26T04:23:14.089Z,8.35
2023-03-26T04:25:49.536Z,15.73
2023-03-26T04:28:26.807Z,9.85
2023-03-26T04:30:55.145Z,18.45
2023-03-26T04:33:21.713Z,12.38
2023-03-26T04:35:48.540Z,18.80
2023-03-26T04:38:18.387Z,14.82
2023-03-26T04:40:47.798Z,9.43
2023-03-26T04:43:17.993Z,11.65
2023-03-26T04:45:47.917Z,9.37
2023-03-26T04:48:14.761Z,14.07
2023-03-26T04:50:45.569Z,8.32
2023-03-26T04:53:16.053Z,12.45
2023-03-26T04:55:56.229Z,15.18
2023-03-26T04:58:32.881Z,9.07
2023-03-26T05:01:10.400Z,18.60
2023-03-26T05:03:39.293Z,8.60
2023-03-26T05:06:06.086Z,6.20
2023-03-26T05:08:32.629Z,14.57
2023-03-26T05:10:59.178Z,12.70
2023-03-26T05:13:25.756Z,15.02
2023-03-26T05:15:52.670Z,10.48
2023-03-26T05:18:19.367Z,22.38
2023-03-26T05:20:46.500Z,8.68
2023-03-26T05:23:13.109Z,9.32
2023-03-26T05:25:39.888Z,8.48
2023-03-26T05:28:06.490Z,15.80
2023-03-26T05:30:33.045Z,8.90
2023-03-26T05:32:59.713Z,10.20
2023-03-26T05:35:26.387Z,16.80
2023-03-26T05:37:53.092Z,10.88
2023-03-26T05:40:20.244Z,14.55
2023-03-26T05:42:47.385Z,7.15
2023-03-26T05:45:15.833Z,14.93
2023-03-26T05:47:42.886Z,9.70
2023-03-26T05:50:10.378Z,12.27
2023-03-26T05:52:37.084Z,11.15
2023-03-26T05:55:04.174Z,16.23
2023-03-26T05:57:31.221Z,11.32
2023-03-26T05:59:57.894Z,15.35
2023-03-26T06:02:24.503Z,11.98
2023-03-26T06:04:51.316Z,12.75
2023-03-26T06:07:19.845Z,9.40
2023-03-26T06:09:46.729Z,12.48
2023-03-26T06:12:13.787Z,13.90
2023-03-26T06:14:42.789Z,12.85
2023-03-26T06:17:10.306Z,9.40
2023-03-26T06:19:37.190Z,13.77
2023-03-26T06:22:04.485Z,7.85
2023-03-26T06:24:31.382Z,13.60
2023-03-26T06:26:57.953Z,13.88
2023-03-26T06:29:25.426Z,15.70
2023-03-26T06:31:51.955Z,14.13
2023-03-26T06:34:18.574Z,9.35
2023-03-26T06:36:45.178Z,12.00
2023-03-26T06:39:11.894Z,12.07
2023-03-26T06:41:38.457Z,13.63
2023-03-26T06:44:05.167Z,14.43
2023-03-26T06:46:31.739Z,10.63
2023-03-26T06:48:58.408Z,10.40
2023-03-26T06:51:25.159Z,7.78
2023-03-26T06:53:51.783Z,6.00
2023-03-26T06:56:18.303Z,8.55
2023-03-26T06:58:44.783Z,7.57
2023-03-26T07:01:11.469Z,6.57
2023-03-26T07:03:38.053Z,9.70
2023-03-26T07:06:04.943Z,10.32
2023-03-26T07:08:31.677Z,8.50
2023-03-26T07:10:58.772Z,9.90
2023-03-26T07:13:25.347Z,8.32
2023-03-26T07:15:51.990Z,9.38
2023-03-26T07:18:18.681Z,11.35
2023-03-26T07:20:46.114Z,12.80
2023-03-26T07:23:15.545Z,8.63
2023-03-26T07:25:42.417Z,9.75
2023-03-26T07:28:12.411Z,8.60
2023-03-26T07:31:20.560Z,13.10
2023-03-26T07:33:59.127Z,12.15
2023-03-26T07:36:32.830Z,10.32
2023-03-26T07:39:07.656Z,9.93
2023-03-26T07:41:51.074Z,13.05
2023-03-26T07:44:27.641Z,6.95
2023-03-26T07:46:54.754Z,11.85
2023-03-26T07:49:21.729Z,12.00
2023-03-26T07:51:49.186Z,14.07
2023-03-26T07:54:16.178Z,17.17
2023-03-26T07:57:06.452Z,8.25
2023-03-26T07:59:49.770Z,10.52
2023-03-26T08:02:28.968Z,12.82
2023-03-26T08:05:10.750Z,7.00
2023-03-26T08:07:53.281Z,10.57
2023-03-26T08:10:31.851Z,9.45
2023-03-26T08:13:10.444Z,9.85
2023-03-26T08:16:16.582Z,5.75
2023-03-26T08:19:00.564Z,11.82
2023-03-26T08:21:31.803Z,8.07
2023-03-26T08:24:24.536Z,9.70
2023-03-26T08:27:23.578Z,4.85
2023-03-26T08:30:02.159Z,13.60
2023-03-26T08:32:29.205Z,10.93
2023-03-26T08:34:57.652Z,8.15
2023-03-26T08:37:24.234Z,11.25
2023-03-26T08:39:51.771Z,8.30
2023-03-26T08:42:30.237Z,8.43
2023-03-26T08:45:21.828Z,8.00
2023-03-26T08:48:13.128Z,8.30
2023-03-26T08:50:51.874Z,10.13
2023-03-26T08:53:38.317Z,7.65
2023-03-26T08:56:31.330Z,8.35
2023-03-26T08:59:12.883Z,9.10
2023-03-26T09:01:46.071Z,5.45
2023-03-26T09:04:24.916Z,10.82
2023-03-26T09:07:28.903Z,5.00
2023-03-26T09:10:03.978Z,10.68
2023-03-26T09:12:51.794Z,3.65
2023-03-26T09:15:47.062Z,4.20
2023-03-26T09:19:06.811Z,8.40
2023-03-26T09:21:39.152Z,7.30
2023-03-26T09:24:27.765Z,7.72
2023-03-26T09:27:15.644Z,4.38
2023-03-26T09:29:54.021Z,11.68
2023-03-26T09:32:58.575Z,7.90
2023-03-26T09:35:53.190Z,13.00
2023-03-26T09:38:51.802Z,5.45
2023-03-26T09:41:38.534Z,9.47
2023-03-26T09:44:51.090Z,9.30
2023-03-26T09:47:45.795Z,9.88
2023-03-26T09:50:41.743Z,12.18
2023-03-26T09:53:14.212Z,9.20
2023-03-26T09:55:51.314Z,8.35
2023-03-26T09:58:31.622Z,6.30
2023-03-26T10:01:29.696Z,6.72
2023-03-26T10:04:21.291Z,9.48
2023-03-26T10:06:53.606Z,14.52
2023-03-26T10:09:23.034Z,6.68
2023-03-26T10:12:21.644Z,7.82
2023-03-26T10:15:09.886Z,9.98
2023-03-26T10:17:56.150Z,8.30
2023-03-26T10:20:28.786Z,8.80
2023-03-26T10:23:09.781Z,5.37
2023-03-26T10:26:04.811Z,9.05
2023-03-26T10:28:56.820Z,4.53
2023-03-26T10:31:42.638Z,7.05
2023-03-26T10:34:28.957Z,7.03
2023-03-26T10:37:20.725Z,7.03
2023-03-26T10:40:21.213Z,6.55
2023-03-26T10:43:12.668Z,6.68
2023-03-26T10:45:54.447Z,4.82
2023-03-26T10:48:45.467Z,4.75
2023-03-26T10:51:41.220Z,8.65
2023-03-26T10:54:19.663Z,4.57
2023-03-26T10:56:49.525Z,8.45
2023-03-26T10:59:17.454Z,7.80
2023-03-26T11:01:58.192Z,6.72
2023-03-26T11:04:30.688Z,6.43
2023-03-26T11:07:24.558Z,11.88
2023-03-26T11:10:42.020Z,7.45
2023-03-26T11:13:35.942Z,4.57
2023-03-26T11:16:22.373Z,6.53
2023-03-26T11:19:16.759Z,4.63
2023-03-26T11:22:22.182Z,5.70
2023-03-26T11:25:04.499Z,12.88
2023-03-26T11:28:12.234Z,6.93
2023-03-26T11:30:53.876Z,5.90
2023-03-26T11:33:32.745Z,5.27
2023-03-26T11:36:06.872Z,5.60
2023-03-26T11:38:39.574Z,8.15
2023-03-26T11:41:14.766Z,4.35
2023-03-26T11:43:41.320Z,9.13
2023-03-26T11:46:14.850Z,5.40
2023-03-26T11:48:46.304Z,7.28
2023-03-26T11:51:27.565Z,5.70
2023-03-26T11:53:54.535Z,8.38
2023-03-26T11:57:04.711Z,2.78
2023-03-26T11:59:48.847Z,5.83
2023-03-26T12:02:37.819Z,4.93
2023-03-26T12:05:13.388Z,6.43
2023-03-26T12:08:01.344Z,5.70
2023-03-26T12:10:33.245Z,4.00
2023-03-26T12:13:02.777Z,4.87
2023-03-26T12:15:31.954Z,4.28
2023-03-26T12:18:17.588Z,8.02
2023-03-26T12:20:45.030Z,4.55
2023-03-26T12:23:52.528Z,7.07
2023-03-26T12:26:21.352Z,7.57
2023-03-26T12:28:49.948Z,7.32
2023-03-26T12:31:19.149Z,4.13
2023-03-26T12:34:23.162Z,5.35
2023-03-26T12:36:55.546Z,5.93
2023-03-26T12:40:10.588Z,7.70
2023-03-26T12:44:47.435Z,6.10
2023-03-26T12:45:22.641Z,5.40
2023-03-26T12:47:58.584Z,4.90
2023-03-26T12:50:43.586Z,6.18
2023-03-26T12:53:30.140Z,5.17
2023-03-26T12:56:38.595Z,7.75
2023-03-26T12:59:25.902Z,6.32
2023-03-26T13:01:55.157Z,8.80
2023-03-26T13:04:55.036Z,6.75
2023-03-26T13:07:41.929Z,9.03
2023-03-26T13:10:24.610Z,11.00
2023-03-26T13:13:32.920Z,10.52
2023-03-26T13:16:16.841Z,9.05
2023-03-26T13:18:56.024Z,7.43
2023-03-26T13:21:37.224Z,9.07
2023-03-26T13:24:16.367Z,11.75
2023-03-26T13:27:10.376Z,9.95
2023-03-26T13:30:00.251Z,10.13
2023-03-26T13:32:58.961Z,12.65
2023-03-26T13:36:21.759Z,13.20
2023-03-26T13:39:14.088Z,11.32
2023-03-26T13:41:48.978Z,11.48
2023-03-26T13:44:47.350Z,11.60
2023-03-26T13:47:19.462Z,6.53
2023-03-26T13:49:55.244Z,10.90
2023-03-26T13:52:45.906Z,8.32
2023-03-26T13:55:32.389Z,9.32
2023-03-26T13:58:06.225Z,5.75
2023-03-26T14:01:01.959Z,6.32
2023-03-26T14:03:53.019Z,9.05
2023-03-26T14:06:34.599Z,6.20
2023-03-26T14:09:09.302Z,7.38
2023-03-26T14:11:49.002Z,9.93
2023-03-26T14:14:39.115Z,11.80
2023-03-26T14:17:26.384Z,10.52
2023-03-26T14:20:22.679Z,6.75
2023-03-26T14:23:12.830Z,11.65
2023-03-26T14:25:50.308Z,7.03
2023-03-26T14:28:39.770Z,14.45
2023-03-26T14:31:29.101Z,14.83
2023-03-26T14:34:19.149Z,9.82
2023-03-26T14:37:07.332Z,10.43
2023-03-26T14:39:57.371Z,18.67
2023-03-26T14:42:43.523Z,13.45
2023-03-26T14:45:34.316Z,9.90
2023-03-26T14:48:43.600Z,6.85
2023-03-26T14:51:34.756Z,11.57
2023-03-26T14:54:12.504Z,8.98
2023-03-26T14:57:00.986Z,12.30
2023-03-26T14:59:39.846Z,7.83
2023-03-26T15:02:47.125Z,8.85
2023-03-26T15:05:37.960Z,7.38
2023-03-26T15:08:34.236Z,12.10
2023-03-26T15:11:20.970Z,4.97
2023-03-26T15:13:59.661Z,11.03
2023-03-26T15:16:47.415Z,6.82
2023-03-26T15:19:36.724Z,10.65
2023-03-26T15:22:18.381Z,13.75
2023-03-26T15:25:16.904Z,8.05
2023-03-26T15:28:02.319Z,5.47
2023-03-26T15:31:09.956Z,8.98
2023-03-26T15:34:00.545Z,10.52
2023-03-26T15:36:41.458Z,6.32
2023-03-26T15:40:07.631Z,7.53
2023-03-26T15:43:11.734Z,5.75
2023-03-26T15:45:53.990Z,5.95
2023-03-26T15:48:40.992Z,5.50
2023-03-26T15:51:26.174Z,7.40
2023-03-26T15:54:06.364Z,8.90
2023-03-26T15:56:57.998Z,7.43
2023-03-26T15:59:43.278Z,8.80
2023-03-26T16:02:16.493Z,8.32
2023-03-26T16:04:57.402Z,9.95
2023-03-26T16:07:47.272Z,6.28
2023-03-26T16:10:29.713Z,5.65
2023-03-26T16:13:17.066Z,7.55
2023-03-26T16:15:51.746Z,8.82
2023-03-26T16:18:28.461Z,8.25
2023-03-26T16:21:01.883Z,8.70
2023-03-26T16:23:47.878Z,6.95
2023-03-26T16:26:43.785Z,8.52
2023-03-26T16:29:24.760Z,7.63
2023-03-26T16:32:11.284Z,4.60
2023-03-26T16:35:02.104Z,5.40
2023-03-26T16:37:32.196Z,8.07
2023-03-26T16:40:23.683Z,7.85
2023-03-26T16:43:06.494Z,4.57
2023-03-26T16:46:08.030Z,4.43
2023-03-26T16:48:51.238Z,9.40
2023-03-26T16:51:43.298Z,7.20
2023-03-26T16:54:27.040Z,9.00
2023-03-26T16:57:23.057Z,6.10
2023-03-26T17:00:08.191Z,8.88
2023-03-26T17:02:51.257Z,7.07
2023-03-26T17:05:21.244Z,5.22
2023-03-26T17:08:36.468Z,10.65
2023-03-26T17:11:21.057Z,5.65
2023-03-26T17:14:01.195Z,6.63
2023-03-26T17:16:34.134Z,3.58
2023-03-26T17:19:21.548Z,5.63
2023-03-26T17:22:01.403Z,4.90
2023-03-26T17:24:54.535Z,11.02
2023-03-26T17:27:51.898Z,10.93
2023-03-26T17:30:56.379Z,7.38
2023-03-26T17:33:26.900Z,5.85
2023-03-26T17:36:11.686Z,5.00
2023-03-26T17:38:45.407Z,10.52
2023-03-26T17:41:14.780Z,9.02
2023-03-26T17:43:50.116Z,6.90
2023-03-26T17:46:39.430Z,9.25
2023-03-26T17:49:20.375Z,3.88
2023-03-26T17:51:58.186Z,6.78
2023-03-26T17:54:41.441Z,10.10
2023-03-26T17:57:25.598Z,5.93
2023-03-26T17:59:57.781Z,7.60
2023-03-26T18:02:42.343Z,5.80
2023-03-26T18:05:12.490Z,6.55
2023-03-26T18:07:58.553Z,8.55
2023-03-26T18:10:39.174Z,8.07
2023-03-26T18:13:09.850Z,14.55
2023-03-26T18:15:45.346Z,3.72
2023-03-26T18:18:22.345Z,4.82
2023-03-26T18:20:51.289Z,10.60
2023-03-26T18:23:23.957Z,4.95
2023-03-26T18:25:57.568Z,3.15
2023-03-26T18:28:41.158Z,6.78
2023-03-26T18:31:18.761Z,3.25
2023-03-26T18:33:47.825Z,3.08
2023-03-26T18:36:16.230Z,8.27
2023-03-26T18:38:43.225Z,5.00
2023-03-26T18:41:22.845Z,3.90
2023-03-26T18:43:49.661Z,2.58
2023-03-26T18:46:17.030Z,11.95
2023-03-26T18:48:44.224Z,6.50
2023-03-26T18:51:11.124Z,6.68
2023-03-26T18:53:41.332Z,5.20
2023-03-26T18:56:31.707Z,4.47
2023-03-26T18:59:00.297Z,6.28
2023-03-26T19:01:32.925Z,9.73
2023-03-26T19:04:04.048Z,5.28
2023-03-26T19:06:36.108Z,5.93
2023-03-26T19:09:19.652Z,6.57
2023-03-26T19:11:57.270Z,3.25
2023-03-26T19:14:25.333Z,7.07
2023-03-26T19:17:03.560Z,5.40
2023-03-26T19:19:33.769Z,5.05
2023-03-26T19:22:01.619Z,12.23
2023-03-26T19:24:28.305Z,5.07
2023-03-26T19:26:54.935Z,2.95
2023-03-26T19:29:29.082Z,2.97
2023-03-26T19:32:21.169Z,4.00
2023-03-26T19:34:48.583Z,6.53
2023-03-26T19:37:26.554Z,5.35
2023-03-26T19:40:00.371Z,4.15
2023-03-26T19:42:43.838Z,2.55
2023-03-26T19:45:18.106Z,3.70
2023-03-26T19:47:52.108Z,2.75
2023-03-26T19:50:24.894Z,5.18
2023-03-26T19:53:15.298Z,3.50
2023-03-26T19:55:54.329Z,4.80
2023-03-26T19:58:21.355Z,3.58
2023-03-26T20:00:47.899Z,4.03
2023-03-26T20:03:16.653Z,5.65
2023-03-26T20:05:43.463Z,5.43
2023-03-26T20:08:14.681Z,8.80
2023-03-26T20:10:42.901Z,10.38
2023-03-26T20:13:15.150Z,6.78
2023-03-26T20:15:45.572Z,3.53
2023-03-26T20:18:12.446Z,5.95
2023-03-26T20:20:41.184Z,3.75
2023-03-26T20:23:14.433Z,8.23
2023-03-26T20:25:49.184Z,5.35
2023-03-26T20:28:19.218Z,2.60
2023-03-26T20:30:48.063Z,2.88
2023-03-26T20:33:26.661Z,6.45
2023-03-26T20:35:57.565Z,2.95
2023-03-26T20:38:38.936Z,5.78
2023-03-26T20:41:09.683Z,8.25
2023-03-26T20:43:36.601Z,6.25
2023-03-26T20:46:04.015Z,7.00
2023-03-26T20:48:30.589Z,7.72
2023-03-26T20:50:57.151Z,6.38
2023-03-26T20:53:24.082Z,4.63
2023-03-26T20:55:51.647Z,3.30
2023-03-26T20:58:30.976Z,2.80
2023-03-26T21:01:01.125Z,6.53
2023-03-26T21:03:27.762Z,2.03
2023-03-26T21:05:54.333Z,4.10
2023-03-26T21:08:22.364Z,4.90
2023-03-26T21:10:49.775Z,6.93
2023-03-26T21:13:36.746Z,4.43
2023-03-26T21:16:04.322Z,7.18
2023-03-26T21:18:31.315Z,9.40
2023-03-26T21:21:18.183Z,4.03
2023-03-26T21:23:59.299Z,7.20
2023-03-26T21:26:41.796Z,4.32
2023-03-26T21:29:08.799Z,8.82
2023-03-26T21:31:37.788Z,4.82
2023-03-26T21:34:05.555Z,7.30
2023-03-26T21:36:32.558Z,3.40
2023-03-26T21:38:59.880Z,7.05
2023-03-26T21:41:41.298Z,10.02
2023-03-26T21:44:08.531Z,3.65
2023-03-26T21:46:35.761Z,4.63
2023-03-26T21:49:02.636Z,7.13
2023-03-26T21:51:29.585Z,3.65
2023-03-26T21:53:56.353Z,3.75
2023-03-26T21:56:33.080Z,1.38
2023-03-26T21:59:21.594Z,5.25
2023-03-26T22:02:15.616Z,1.65
2023-03-26T22:04:56.764Z,4.43
2023-03-26T22:07:30.648Z,1.77
2023-03-26T22:09:57.412Z,4.70
2023-03-26T22:12:25.619Z,4.78
2023-03-26T22:14:52.536Z,2.03
2023-03-26T22:17:19.773Z,6.10
2023-03-26T22:19:46.341Z,3.97
2023-03-26T22:22:12.882Z,1.98
2023-03-26T22:24:39.513Z,2.47
2023-03-26T22:27:07.755Z,4.40
2023-03-26T22:29:34.284Z,5.22
2023-03-26T22:32:00.894Z,5.30
2023-03-26T22:34:27.410Z,4.47
2023-03-26T22:36:53.992Z,3.22
2023-03-26T22:39:20.908Z,6.03
2023-03-26T22:41:47.443Z,4.95
2023-03-26T22:46:47.395Z,5.38
2023-03-26T22:49:13.958Z,3.70
2023-03-26T22:51:40.507Z,2.50
2023-03-26T22:54:07.634Z,2.50
2023-03-26T22:56:34.222Z,3.58
2023-03-26T22:59:01.230Z,2.78
2023-03-26T23:01:28.221Z,5.95
2023-03-26T23:03:55.048Z,2.88
2023-03-26T23:06:21.649Z,4.97
2023-03-26T23:08:48.316Z,3.50
2023-03-26T23:11:20.412Z,4.78
2023-03-26T23:13:47.834Z,2.70
2023-03-26T23:16:16.194Z,10.63
2023-03-26T23:18:43.165Z,4.75
2023-03-26T23:21:18.500Z,6.22
2023-03-26T23:23:46.112Z,3.80
2023-03-26T23:26:14.511Z,5.28
2023-03-26T23:28:41.322Z,3.28
2023-03-26T23:31:10.255Z,4.00
2023-03-26T23:33:38.999Z,2.88
2023-03-26T23:36:10.731Z,4.75
2023-03-26T23:38:43.543Z,3.50
2023-03-26T23:41:15.111Z,3.17
2023-03-26T23:43:56.052Z,1.80
2023-03-26T23:46:24.530Z,2.92
2023-03-26T23:48:51.673Z,4.03
2023-03-26T23:51:21.738Z,4.38
2023-03-26T23:53:49.235Z,2.35
2023-03-26T23:56:16.607Z,2.85
2023-03-26T23:58:43.363Z,6.43
